Time;durP1;ratioP1;P1;durP2;ratioP2;P2;SDS_P1;SDS_P2;PMS_P1;PMS_P2;Temp;Humidity;BMP_temperature;BMP_pressure;BME280_temperature;BME280_humidity;BME280_pressure;Samples;Min_cycle;Max_cycle;Signal;HPM_P1;HPM_P2
2021/09/29 00:02:15;;;;;;;8.32;4.80;;;;;;;;;;5046970;28;20189;-69
2021/09/29 00:04:41;;;;;;;9.20;5.65;;;;;;;;;;5047222;28;20202;-69
2021/09/29 00:07:06;;;;;;;10.32;6.43;;;;;;;;;;5040978;28;20179;-69
2021/09/29 00:09:31;;;;;;;8.38;5.47;;;;;;;;;;5038651;28;20209;-69
2021/09/29 00:11:56;;;;;;;9.52;5.38;;;;;;;;;;5042463;28;20221;-69
2021/09/29 00:14:21;;;;;;;8.73;5.18;;;;;;;;;;5043433;28;20291;-69
2021/09/29 00:16:47;;;;;;;10.00;5.25;;;;;;;;;;5042025;28;20201;-70
2021/09/29 00:19:12;;;;;;;7.93;5.20;;;;;;;;;;5042274;28;20198;-70
2021/09/29 00:21:37;;;;;;;12.00;6.15;;;;;;;;;;5036887;28;20185;-71
2021/09/29 00:24:02;;;;;;;10.80;5.68;;;;;;;;;;5052017;28;20182;-70
2021/09/29 00:26:27;;;;;;;6.82;5.38;;;;;;;;;;5051867;28;20209;-70
2021/09/29 00:28:53;;;;;;;11.73;6.05;;;;;;;;;;5048286;28;20568;-70
2021/09/29 00:31:35;;;;;;;6.33;4.83;;;;;;;;;;5044356;28;20269;-71
2021/09/29 00:34:11;;;;;;;9.38;6.38;;;;;;;;;;5047919;28;20228;-71
2021/09/29 00:36:43;;;;;;;10.15;5.60;;;;;;;;;;5043414;28;20186;-69
2021/09/29 00:39:10;;;;;;;8.70;6.38;;;;;;;;;;5050956;28;20212;-71
2021/09/29 00:41:35;;;;;;;8.83;5.80;;;;;;;;;;5049496;28;20601;-69
2021/09/29 00:44:01;;;;;;;8.97;5.43;;;;;;;;;;5051966;28;20436;-71
2021/09/29 00:46:27;;;;;;;9.70;5.50;;;;;;;;;;5051464;28;20209;-71
2021/09/29 00:48:52;;;;;;;13.23;5.65;;;;;;;;;;5050691;28;20194;-71
2021/09/29 00:51:17;;;;;;;7.87;5.50;;;;;;;;;;5052714;28;20540;-69
2021/09/29 00:53:42;;;;;;;8.18;5.20;;;;;;;;;;5050427;28;20647;-71
2021/09/29 00:56:08;;;;;;;11.03;6.03;;;;;;;;;;5053381;28;20173;-69
2021/09/29 00:58:33;;;;;;;10.57;5.78;;;;;;;;;;5051073;28;20254;-71
2021/09/29 01:00:59;;;;;;;9.10;5.88;;;;;;;;;;5051790;28;20215;-69
2021/09/29 01:03:24;;;;;;;10.88;6.50;;;;;;;;;;5050200;28;20182;-69
2021/09/29 01:05:51;;;;;;;11.52;6.13;;;;;;;;;;5051807;28;20202;-69
2021/09/29 01:08:18;;;;;;;6.88;5.53;;;;;;;;;;5053389;28;20178;-69
2021/09/29 01:10:58;;;;;;;8.47;6.63;;;;;;;;;;5050033;28;20220;-69
2021/09/29 01:13:33;;;;;;;8.82;6.22;;;;;;;;;;5047090;28;20270;-69
2021/09/29 01:16:02;;;;;;;14.82;7.13;;;;;;;;;;5050892;28;20181;-72
2021/09/29 01:18:28;;;;;;;6.40;5.65;;;;;;;;;;5050785;28;20189;-69
2021/09/29 01:20:59;;;;;;;7.80;5.47;;;;;;;;;;5047880;28;20277;-69
2021/09/29 01:23:31;;;;;;;12.73;5.60;;;;;;;;;;5039803;28;20609;-69
2021/09/29 01:25:56;;;;;;;8.18;5.22;;;;;;;;;;5048995;28;20224;-71
2021/09/29 01:28:33;;;;;;;8.02;5.63;;;;;;;;;;5045357;28;20182;-70
2021/09/29 01:30:59;;;;;;;9.03;5.97;;;;;;;;;;5055363;28;20434;-69
2021/09/29 01:33:25;;;;;;;11.00;6.37;;;;;;;;;;5058850;28;20197;-69
2021/09/29 01:35:50;;;;;;;10.00;6.00;;;;;;;;;;5050532;28;20186;-69
2021/09/29 01:38:15;;;;;;;10.00;5.40;;;;;;;;;;5045259;28;20186;-70
2021/09/29 01:40:41;;;;;;;9.47;5.77;;;;;;;;;;5044353;28;20213;-68
2021/09/29 01:43:06;;;;;;;8.82;5.50;;;;;;;;;;5044098;28;20193;-70
2021/09/29 01:45:31;;;;;;;9.85;6.07;;;;;;;;;;5047958;28;20291;-70
2021/09/29 01:47:56;;;;;;;9.37;5.47;;;;;;;;;;5044150;28;20212;-71
2021/09/29 01:50:23;;;;;;;10.20;5.37;;;;;;;;;;5046833;28;20197;-71
2021/09/29 01:52:49;;;;;;;8.53;5.57;;;;;;;;;;5049836;28;20177;-70
2021/09/29 01:55:17;;;;;;;11.10;5.67;;;;;;;;;;5045266;28;20238;-69
2021/09/29 01:57:42;;;;;;;11.33;6.03;;;;;;;;;;5044503;28;20182;-69
2021/09/29 02:00:08;;;;;;;7.30;5.40;;;;;;;;;;5045141;28;20204;-70
2021/09/29 02:02:33;;;;;;;8.52;5.47;;;;;;;;;;5045325;28;20648;-68
2021/09/29 02:04:58;;;;;;;10.80;6.03;;;;;;;;;;5042844;28;20201;-68
2021/09/29 02:07:26;;;;;;;7.93;5.37;;;;;;;;;;5046630;28;20223;-69
2021/09/29 02:09:51;;;;;;;8.70;5.60;;;;;;;;;;5047413;28;20216;-71
2021/09/29 02:12:17;;;;;;;10.23;5.10;;;;;;;;;;5048046;28;20195;-68
2021/09/29 02:14:43;;;;;;;8.17;6.27;;;;;;;;;;5048667;28;20177;-71
2021/09/29 02:17:08;;;;;;;11.67;6.13;;;;;;;;;;5046698;28;20652;-71
2021/09/29 02:19:33;;;;;;;10.60;5.30;;;;;;;;;;5044456;28;20198;-68
2021/09/29 02:21:59;;;;;;;9.13;5.30;;;;;;;;;;5047420;28;20263;-69
2021/09/29 02:24:24;;;;;;;9.17;5.93;;;;;;;;;;5046430;28;20627;-69
2021/09/29 02:26:49;;;;;;;8.30;6.05;;;;;;;;;;5049555;28;20186;-69
2021/09/29 02:29:15;;;;;;;14.93;6.30;;;;;;;;;;5046621;28;20717;-68
2021/09/29 02:31:40;;;;;;;9.57;5.23;;;;;;;;;;5047493;28;20186;-71
2021/09/29 02:34:06;;;;;;;8.13;5.13;;;;;;;;;;5047987;28;20410;-70
2021/09/29 02:36:31;;;;;;;8.33;5.43;;;;;;;;;;5049471;28;20181;-70
2021/09/29 02:38:56;;;;;;;10.10;5.35;;;;;;;;;;5050104;28;20201;-70
2021/09/29 02:41:22;;;;;;;9.57;5.03;;;;;;;;;;5041666;28;20655;-70
2021/09/29 02:43:47;;;;;;;7.75;4.75;;;;;;;;;;5047088;28;20188;-72
2021/09/29 02:46:13;;;;;;;6.97;4.87;;;;;;;;;;5046183;28;20204;-72
2021/09/29 02:48:38;;;;;;;8.83;5.00;;;;;;;;;;5043404;28;20647;-71
2021/09/29 02:51:03;;;;;;;8.43;6.15;;;;;;;;;;5047064;28;20181;-71
2021/09/29 02:53:29;;;;;;;9.27;5.07;;;;;;;;;;5046906;28;20177;-71
2021/09/29 02:55:58;;;;;;;10.10;5.28;;;;;;;;;;5048164;28;20181;-70
2021/09/29 02:58:23;;;;;;;7.00;5.18;;;;;;;;;;5047644;28;20308;-71
2021/09/29 03:00:49;;;;;;;7.10;4.95;;;;;;;;;;5045456;28;20276;-71
2021/09/29 03:03:14;;;;;;;10.13;5.60;;;;;;;;;;5048432;28;20558;-71
2021/09/29 03:05:40;;;;;;;9.02;5.60;;;;;;;;;;5049043;28;20194;-68
2021/09/29 03:08:05;;;;;;;9.95;5.00;;;;;;;;;;5050463;28;20177;-69
2021/09/29 03:10:30;;;;;;;12.63;5.63;;;;;;;;;;5052241;28;20201;-69
2021/09/29 03:12:55;;;;;;;9.70;5.70;;;;;;;;;;5048893;28;20177;-70
2021/09/29 03:15:21;;;;;;;7.60;5.32;;;;;;;;;;5051201;28;20593;-71
2021/09/29 03:17:46;;;;;;;10.93;5.53;;;;;;;;;;5054328;28;20181;-70
2021/09/29 03:20:11;;;;;;;10.57;6.22;;;;;;;;;;5044916;28;20206;-71
2021/09/29 03:22:36;;;;;;;7.10;5.30;;;;;;;;;;5049943;28;20193;-68
2021/09/29 03:25:02;;;;;;;6.67;4.60;;;;;;;;;;5048135;28;20388;-69
2021/09/29 03:27:27;;;;;;;8.38;5.65;;;;;;;;;;5049499;28;20184;-71
2021/09/29 03:29:52;;;;;;;8.07;4.95;;;;;;;;;;5047597;28;20667;-73
2021/09/29 03:32:17;;;;;;;9.45;4.90;;;;;;;;;;5047360;28;20206;-69
2021/09/29 03:34:42;;;;;;;14.38;5.07;;;;;;;;;;5048328;28;20648;-70
2021/09/29 03:37:08;;;;;;;8.32;5.53;;;;;;;;;;5050182;28;20207;-70
2021/09/29 03:39:33;;;;;;;11.18;5.93;;;;;;;;;;5050913;28;20224;-70
2021/09/29 03:41:58;;;;;;;9.85;5.47;;;;;;;;;;5051925;28;20182;-69
2021/09/29 03:44:23;;;;;;;10.60;5.03;;;;;;;;;;5049608;28;20268;-73
2021/09/29 03:46:48;;;;;;;7.10;5.00;;;;;;;;;;5039460;28;20179;-69
2021/09/29 03:49:14;;;;;;;7.97;4.63;;;;;;;;;;5048902;28;20243;-71
2021/09/29 03:51:39;;;;;;;6.40;4.10;;;;;;;;;;5049282;28;20181;-71
2021/09/29 03:54:04;;;;;;;6.88;4.15;;;;;;;;;;5053537;28;20197;-70
2021/09/29 03:56:29;;;;;;;6.90;4.18;;;;;;;;;;5051937;28;20257;-71
2021/09/29 03:58:55;;;;;;;4.88;3.67;;;;;;;;;;5046431;28;20197;-70
2021/09/29 04:01:20;;;;;;;8.15;4.45;;;;;;;;;;5050765;28;20189;-71
2021/09/29 04:03:46;;;;;;;10.63;4.00;;;;;;;;;;5050575;28;20178;-69
2021/09/29 04:06:11;;;;;;;15.48;5.05;;;;;;;;;;5050986;28;20682;-70
2021/09/29 04:08:36;;;;;;;7.93;4.00;;;;;;;;;;5052430;28;20713;-70
2021/09/29 04:11:02;;;;;;;6.72;4.20;;;;;;;;;;5055030;28;20185;-70
2021/09/29 04:13:28;;;;;;;8.15;3.85;;;;;;;;;;5046636;28;20182;-69
2021/09/29 04:15:54;;;;;;;8.80;4.72;;;;;;;;;;5051226;28;20184;-71
2021/09/29 04:18:19;;;;;;;6.20;3.70;;;;;;;;;;5048991;28;20185;-69
2021/09/29 04:20:44;;;;;;;7.60;3.78;;;;;;;;;;5049301;28;20280;-69
2021/09/29 04:23:09;;;;;;;7.85;3.60;;;;;;;;;;5052560;28;20215;-70
2021/09/29 04:25:35;;;;;;;5.75;3.80;;;;;;;;;;5051971;28;20761;-70
2021/09/29 04:28:00;;;;;;;9.48;3.65;;;;;;;;;;5046751;28;20173;-71
2021/09/29 04:30:26;;;;;;;5.90;4.15;;;;;;;;;;5048365;28;20679;-71
2021/09/29 04:32:51;;;;;;;6.43;3.88;;;;;;;;;;5048518;28;20180;-69
2021/09/29 04:35:16;;;;;;;4.45;3.90;;;;;;;;;;5051331;28;20801;-70
2021/09/29 04:37:41;;;;;;;9.93;5.22;;;;;;;;;;5051384;28;20169;-69
2021/09/29 04:40:07;;;;;;;13.05;5.15;;;;;;;;;;5051389;28;20756;-69
2021/09/29 04:42:33;;;;;;;7.88;4.07;;;;;;;;;;5050921;28;20536;-71
2021/09/29 04:44:58;;;;;;;8.02;3.95;;;;;;;;;;5051688;28;20218;-71
2021/09/29 04:47:23;;;;;;;7.03;3.83;;;;;;;;;;5044996;28;20663;-71
2021/09/29 04:49:48;;;;;;;6.10;3.92;;;;;;;;;;5043956;28;20255;-71
2021/09/29 04:52:13;;;;;;;10.15;4.30;;;;;;;;;;5050499;28;20219;-71
2021/09/29 04:54:41;;;;;;;16.35;5.55;;;;;;;;;;5051911;28;20303;-71
2021/09/29 04:57:06;;;;;;;5.70;3.53;;;;;;;;;;5049745;28;20185;-70
2021/09/29 04:59:31;;;;;;;10.10;4.75;;;;;;;;;;5048107;28;20271;-71
2021/09/29 05:01:57;;;;;;;6.28;4.25;;;;;;;;;;5042760;28;20193;-70
2021/09/29 05:04:25;;;;;;;7.45;3.80;;;;;;;;;;5050335;28;20172;-70
2021/09/29 05:06:51;;;;;;;8.15;4.72;;;;;;;;;;5048923;28;20232;-71
2021/09/29 05:09:16;;;;;;;7.22;4.18;;;;;;;;;;5045952;28;20560;-70
2021/09/29 05:11:47;;;;;;;8.38;4.00;;;;;;;;;;5049288;28;20192;-70
2021/09/29 05:14:13;;;;;;;6.05;4.43;;;;;;;;;;5050856;28;20666;-69
2021/09/29 05:16:39;;;;;;;6.40;3.55;;;;;;;;;;5050122;28;20268;-70
2021/09/29 05:19:05;;;;;;;7.95;3.80;;;;;;;;;;5049915;28;20285;-69
2021/09/29 05:21:30;;;;;;;5.03;3.53;;;;;;;;;;5050237;28;20272;-69
2021/09/29 05:23:55;;;;;;;6.30;3.80;;;;;;;;;;5049247;28;20173;-71
2021/09/29 05:26:21;;;;;;;8.65;3.92;;;;;;;;;;5049953;28;20614;-71
2021/09/29 05:28:48;;;;;;;5.47;3.67;;;;;;;;;;5047663;28;20426;-70
2021/09/29 05:31:13;;;;;;;6.65;3.50;;;;;;;;;;5047694;28;20181;-71
2021/09/29 05:33:38;;;;;;;8.15;4.25;;;;;;;;;;5047448;28;20165;-72
2021/09/29 05:36:04;;;;;;;6.75;3.40;;;;;;;;;;5048845;28;20532;-71
2021/09/29 05:38:29;;;;;;;6.18;3.53;;;;;;;;;;5047370;28;20186;-71
2021/09/29 05:40:54;;;;;;;6.85;4.47;;;;;;;;;;5050055;28;20170;-69
2021/09/29 05:43:19;;;;;;;8.03;4.00;;;;;;;;;;5049028;28;20223;-71
2021/09/29 05:45:44;;;;;;;7.20;3.92;;;;;;;;;;5047411;28;20191;-71
2021/09/29 05:48:10;;;;;;;6.28;3.67;;;;;;;;;;5047463;28;20182;-71
2021/09/29 05:50:35;;;;;;;7.30;4.45;;;;;;;;;;5049503;28;20197;-72
2021/09/29 05:53:00;;;;;;;9.45;4.28;;;;;;;;;;5049453;28;20522;-71
2021/09/29 05:55:25;;;;;;;5.37;3.80;;;;;;;;;;5048098;28;20708;-72
2021/09/29 05:57:51;;;;;;;6.28;3.47;;;;;;;;;;5047539;28;20217;-70
2021/09/29 06:00:16;;;;;;;8.97;3.97;;;;;;;;;;5046075;28;20215;-71
2021/09/29 06:02:41;;;;;;;4.70;3.65;;;;;;;;;;5033852;28;20601;-69
2021/09/29 06:05:07;;;;;;;4.95;2.90;;;;;;;;;;5043482;28;20236;-71
2021/09/29 06:07:32;;;;;;;7.82;3.67;;;;;;;;;;5038421;28;20253;-72
2021/09/29 06:09:57;;;;;;;11.18;4.43;;;;;;;;;;5041668;28;20226;-69
2021/09/29 06:12:23;;;;;;;4.47;3.25;;;;;;;;;;5047520;28;20644;-71
2021/09/29 06:14:53;;;;;;;8.85;3.83;;;;;;;;;;5045666;28;20177;-70
2021/09/29 06:17:27;;;;;;;8.73;4.53;;;;;;;;;;5049361;28;20179;-71
2021/09/29 06:19:53;;;;;;;6.75;3.40;;;;;;;;;;5052905;28;20299;-70
2021/09/29 06:22:19;;;;;;;5.95;2.80;;;;;;;;;;5051277;28;20177;-71
2021/09/29 06:24:44;;;;;;;5.47;3.17;;;;;;;;;;5051015;28;20284;-72
2021/09/29 06:27:11;;;;;;;8.45;3.67;;;;;;;;;;5045242;28;20170;-71
2021/09/29 06:29:36;;;;;;;4.53;2.80;;;;;;;;;;5050565;28;20236;-70
2021/09/29 06:32:02;;;;;;;5.88;3.28;;;;;;;;;;5042428;28;20193;-72
2021/09/29 06:34:28;;;;;;;7.78;2.90;;;;;;;;;;5047243;28;20180;-70
2021/09/29 06:36:54;;;;;;;8.07;3.28;;;;;;;;;;5044865;28;20677;-69
2021/09/29 06:39:19;;;;;;;5.13;2.83;;;;;;;;;;5050375;28;20257;-70
2021/09/29 06:41:45;;;;;;;4.60;2.75;;;;;;;;;;5051187;28;20174;-71
2021/09/29 06:44:10;;;;;;;3.28;2.40;;;;;;;;;;5049862;28;20224;-71
2021/09/29 06:46:35;;;;;;;8.32;3.67;;;;;;;;;;5046494;28;20671;-71
2021/09/29 06:49:01;;;;;;;7.20;3.40;;;;;;;;;;5054926;28;20685;-70
2021/09/29 06:51:26;;;;;;;5.32;2.72;;;;;;;;;;5055708;28;20217;-69
2021/09/29 06:53:52;;;;;;;5.53;3.42;;;;;;;;;;5051054;28;20228;-71
2021/09/29 06:56:17;;;;;;;5.18;3.05;;;;;;;;;;5044879;28;20201;-71
2021/09/29 06:58:44;;;;;;;6.25;3.30;;;;;;;;;;5050264;28;20177;-71
2021/09/29 07:01:09;;;;;;;7.53;3.10;;;;;;;;;;5050679;28;20572;-70
2021/09/29 07:03:34;;;;;;;6.28;3.42;;;;;;;;;;5042401;28;20243;-71
2021/09/29 07:06:00;;;;;;;7.20;3.17;;;;;;;;;;5044460;28;20186;-68
2021/09/29 07:08:25;;;;;;;7.07;3.25;;;;;;;;;;5046105;28;20189;-70
2021/09/29 07:10:51;;;;;;;4.85;3.28;;;;;;;;;;5048512;28;20251;-71
2021/09/29 07:13:16;;;;;;;11.43;3.40;;;;;;;;;;5052436;28;20173;-70
2021/09/29 07:15:41;;;;;;;8.90;3.70;;;;;;;;;;5044993;28;20569;-71
2021/09/29 07:18:08;;;;;;;10.48;3.70;;;;;;;;;;5052465;28;20203;-72
2021/09/29 07:20:34;;;;;;;6.32;3.90;;;;;;;;;;5045384;28;20201;-69
2021/09/29 07:22:59;;;;;;;7.00;3.83;;;;;;;;;;5043797;28;20193;-71
2021/09/29 07:25:28;;;;;;;4.75;3.25;;;;;;;;;;5043172;28;20547;-71
2021/09/29 07:27:53;;;;;;;7.40;4.10;;;;;;;;;;5043602;28;20169;-70
2021/09/29 07:30:18;;;;;;;5.20;3.60;;;;;;;;;;5047833;28;20205;-69
2021/09/29 07:32:45;;;;;;;5.80;3.70;;;;;;;;;;5045382;28;20189;-70
2021/09/29 07:35:11;;;;;;;6.28;4.13;;;;;;;;;;5049565;28;20209;-72
2021/09/29 07:37:36;;;;;;;6.40;3.83;;;;;;;;;;5048853;28;20243;-71
2021/09/29 07:40:01;;;;;;;8.07;4.32;;;;;;;;;;5043545;28;20212;-72
2021/09/29 07:42:26;;;;;;;6.28;4.13;;;;;;;;;;5044304;28;20189;-73
2021/09/29 07:44:52;;;;;;;6.55;3.83;;;;;;;;;;5041772;28;20679;-72
2021/09/29 07:47:17;;;;;;;8.02;4.22;;;;;;;;;;5043357;28;20182;-71
2021/09/29 07:49:42;;;;;;;8.10;4.35;;;;;;;;;;5040894;28;20221;-70
2021/09/29 07:52:07;;;;;;;4.63;3.72;;;;;;;;;;5024918;28;20663;-71
2021/09/29 07:54:32;;;;;;;6.43;4.28;;;;;;;;;;5032905;28;20187;-72
2021/09/29 07:56:58;;;;;;;7.85;4.85;;;;;;;;;;5031456;28;22501;-72
2021/09/29 07:59:23;;;;;;;5.65;4.10;;;;;;;;;;5033331;28;20668;-73
2021/09/29 08:01:51;;;;;;;6.15;4.50;;;;;;;;;;5033299;28;20185;-71
2021/09/29 08:04:19;;;;;;;6.38;5.05;;;;;;;;;;5036846;28;20319;-71
2021/09/29 08:06:45;;;;;;;5.82;4.45;;;;;;;;;;5035309;28;20210;-74
2021/09/29 08:09:10;;;;;;;7.05;5.30;;;;;;;;;;5045466;23;20213;-72
2021/09/29 08:11:35;;;;;;;7.05;5.25;;;;;;;;;;5027378;28;20294;-71
2021/09/29 08:14:00;;;;;;;7.63;5.55;;;;;;;;;;5034174;28;20181;-73
2021/09/29 08:16:26;;;;;;;7.32;4.68;;;;;;;;;;5027438;28;20210;-75
2021/09/29 08:18:51;;;;;;;6.70;4.22;;;;;;;;;;5031978;28;20196;-74
2021/09/29 08:21:23;;;;;;;5.18;4.63;;;;;;;;;;5036187;28;20202;-76
2021/09/29 08:23:50;;;;;;;7.32;4.30;;;;;;;;;;5033208;28;20261;-76
2021/09/29 08:31:33;;;;;;;4.43;3.30;;;;;;;;;;5024930;28;20276;-82
2021/09/29 08:39:02;;;;;;;2.60;2.40;;;;;;;;;;5038557;28;20269;-80
2021/09/29 08:44:26;;;;;;;3.13;2.30;;;;;;;;;;5033755;28;20682;-80
2021/09/29 08:52:04;;;;;;;4.35;2.20;;;;;;;;;;5035928;28;20234;-79
2021/09/29 09:16:30;;;;;;;2.30;1.17;;;;;;;;;;5032554;28;20205;-80
2021/09/29 09:18:56;;;;;;;1.65;1.00;;;;;;;;;;5036948;28;20182;-79
2021/09/29 09:21:22;;;;;;;2.40;1.50;;;;;;;;;;5025640;28;20202;-77
2021/09/29 09:23:47;;;;;;;1.87;1.10;;;;;;;;;;5026447;28;20186;-78
2021/09/29 09:26:15;;;;;;;2.50;1.20;;;;;;;;;;5026719;28;20236;-77
2021/09/29 09:28:40;;;;;;;1.40;1.15;;;;;;;;;;5028406;28;20175;-77
2021/09/29 09:31:11;;;;;;;2.03;0.73;;;;;;;;;;5034980;28;20201;-77
2021/09/29 09:33:46;;;;;;;2.63;1.13;;;;;;;;;;5021202;28;20232;-76
2021/09/29 09:36:11;;;;;;;1.80;1.20;;;;;;;;;;5018592;28;20186;-81
2021/09/29 09:38:41;;;;;;;1.30;0.95;;;;;;;;;;5015953;28;20183;-79
2021/09/29 09:41:06;;;;;;;1.97;1.10;;;;;;;;;;5013290;28;20202;-77
2021/09/29 09:43:31;;;;;;;1.33;0.90;;;;;;;;;;5016710;28;20189;-76
2021/09/29 09:45:58;;;;;;;2.33;1.02;;;;;;;;;;5012187;28;20225;-78
2021/09/29 09:48:25;;;;;;;1.73;0.80;;;;;;;;;;5015035;28;20282;-74
2021/09/29 09:50:53;;;;;;;1.57;0.93;;;;;;;;;;5014188;28;20347;-74
2021/09/29 09:53:19;;;;;;;3.70;1.20;;;;;;;;;;5015329;28;20212;-80
2021/09/29 09:55:44;;;;;;;1.23;0.90;;;;;;;;;;5017274;28;20210;-80
2021/09/29 09:58:09;;;;;;;2.07;1.10;;;;;;;;;;5016668;28;20193;-83
2021/09/29 10:00:36;;;;;;;1.63;1.00;;;;;;;;;;5017828;28;20217;-83
2021/09/29 10:03:02;;;;;;;3.70;1.40;;;;;;;;;;5018122;28;20187;-84
2021/09/29 10:05:28;;;;;;;2.97;1.40;;;;;;;;;;5020698;28;20210;-83
2021/09/29 10:07:54;;;;;;;5.80;1.37;;;;;;;;;;5019648;28;20298;-84
2021/09/29 10:23:59;;;;;;;1.20;0.87;;;;;;;;;;5018749;28;20257;-84
2021/09/29 10:26:25;;;;;;;1.50;0.80;;;;;;;;;;5015784;28;20682;-83
2021/09/29 10:29:02;;;;;;;1.00;0.70;;;;;;;;;;5016595;28;20187;-85
2021/09/29 10:42:40;;;;;;;0.80;0.73;;;;;;;;;;5034841;28;20505;-82
2021/09/29 10:47:53;;;;;;;2.87;1.33;;;;;;;;;;5039421;28;20207;-83
2021/09/29 11:31:31;;;;;;;2.65;1.13;;;;;;;;;;5015269;28;20295;-76
2021/09/29 11:34:12;;;;;;;4.22;1.08;;;;;;;;;;5017609;28;20811;-76
2021/09/29 12:09:30;;;;;;;6.75;1.48;;;;;;;;;;5027603;28;20236;-72
2021/09/29 12:11:52;;;;;;;7.07;1.10;;;;;;;;;;5015201;28;20198;-76
2021/09/29 12:14:18;;;;;;;2.78;0.85;;;;;;;;;;5023041;28;20183;-73
2021/09/29 12:16:44;;;;;;;0.80;0.45;;;;;;;;;;5020118;28;20617;-74
2021/09/29 12:19:35;;;;;;;1.52;0.70;;;;;;;;;;5017953;28;20175;-70
2021/09/29 12:22:04;;;;;;;4.40;0.57;;;;;;;;;;5016367;28;20729;-72
2021/09/29 12:24:45;;;;;;;1.27;0.50;;;;;;;;;;5014938;28;20197;-74
2021/09/29 12:27:32;;;;;;;3.22;0.60;;;;;;;;;;5015036;28;20190;-72
2021/09/29 12:30:03;;;;;;;2.05;0.43;;;;;;;;;;5013516;28;20698;-74
2021/09/29 12:32:33;;;;;;;1.33;0.52;;;;;;;;;;5016590;28;20257;-73
2021/09/29 12:35:06;;;;;;;2.75;0.73;;;;;;;;;;5032021;28;20209;-73
2021/09/29 12:37:31;;;;;;;3.13;0.70;;;;;;;;;;5024092;28;20197;-71
2021/09/29 12:39:57;;;;;;;3.33;0.80;;;;;;;;;;5028391;28;20676;-74
2021/09/29 12:42:29;;;;;;;5.40;0.80;;;;;;;;;;5032740;28;20462;-74
2021/09/29 12:44:54;;;;;;;2.88;0.57;;;;;;;;;;5022129;28;20185;-71
2021/09/29 12:49:45;;;;;;;7.32;0.90;;;;;;;;;;5027839;28;20198;-74
2021/09/29 12:52:10;;;;;;;1.42;0.50;;;;;;;;;;5030326;28;20174;-73
2021/09/29 12:54:43;;;;;;;2.05;0.50;;;;;;;;;;5030960;28;20193;-73
2021/09/29 12:57:08;;;;;;;2.08;0.80;;;;;;;;;;5030741;28;20312;-72
2021/09/29 12:59:33;;;;;;;4.43;2.00;;;;;;;;;;5029890;28;20277;-72
2021/09/29 13:01:58;;;;;;;1.90;0.70;;;;;;;;;;5026237;28;20188;-75
2021/09/29 13:04:25;;;;;;;4.77;0.80;;;;;;;;;;5029103;28;20431;-71
2021/09/29 13:06:50;;;;;;;5.45;1.23;;;;;;;;;;5027202;28;20463;-74
2021/09/29 13:09:15;;;;;;;3.03;1.13;;;;;;;;;;5027638;28;20190;-72
2021/09/29 13:11:41;;;;;;;2.05;0.70;;;;;;;;;;5027344;28;20204;-74
2021/09/29 13:14:06;;;;;;;1.80;0.70;;;;;;;;;;5031039;28;20178;-74
2021/09/29 13:16:32;;;;;;;1.83;0.53;;;;;;;;;;5022909;28;20236;-71
2021/09/29 13:19:03;;;;;;;1.88;0.57;;;;;;;;;;5026171;28;20854;-76
2021/09/29 13:21:40;;;;;;;2.42;0.50;;;;;;;;;;5024996;28;20193;-72
2021/09/29 13:37:36;;;;;;;1.92;0.40;;;;;;;;;;4936654;28;20308;-74
2021/09/29 13:40:02;;;;;;;3.45;0.55;;;;;;;;;;4976119;28;20214;-75
2021/09/29 13:42:27;;;;;;;1.55;0.65;;;;;;;;;;5013118;28;20186;-74
2021/09/29 13:44:53;;;;;;;2.50;0.52;;;;;;;;;;5012299;28;20248;-76
2021/09/29 13:47:18;;;;;;;1.83;0.88;;;;;;;;;;5011948;28;20213;-72
2021/09/29 13:49:43;;;;;;;1.10;0.52;;;;;;;;;;5015396;28;20279;-73
2021/09/29 13:52:13;;;;;;;1.48;0.50;;;;;;;;;;5013060;28;20170;-71
2021/09/29 13:54:40;;;;;;;3.67;0.85;;;;;;;;;;5011056;28;20568;-73
2021/09/29 14:02:29;;;;;;;2.30;0.60;;;;;;;;;;5012131;28;22214;-70
2021/09/29 14:29:36;;;;;;;2.58;0.75;;;;;;;;;;4996343;28;20177;-71
2021/09/29 14:34:27;;;;;;;1.90;0.60;;;;;;;;;;5004281;28;20175;-71
2021/09/29 14:36:52;;;;;;;3.63;0.70;;;;;;;;;;5007708;28;20175;-76
2021/09/29 14:39:17;;;;;;;4.80;0.60;;;;;;;;;;5010853;28;20408;-73
2021/09/29 14:41:42;;;;;;;2.50;0.60;;;;;;;;;;5006793;28;20696;-72
2021/09/29 14:44:08;;;;;;;1.95;1.13;;;;;;;;;;5006765;28;20187;-70
2021/09/29 14:46:33;;;;;;;3.92;1.30;;;;;;;;;;5009223;28;20210;-73
2021/09/29 14:48:59;;;;;;;3.00;0.80;;;;;;;;;;5023479;28;20175;-74
2021/09/29 14:51:24;;;;;;;1.50;0.70;;;;;;;;;;5008192;28;20191;-71
2021/09/29 14:53:50;;;;;;;1.35;0.65;;;;;;;;;;5008189;28;20187;-72
2021/09/29 14:56:19;;;;;;;4.40;1.45;;;;;;;;;;5004098;28;20179;-73
2021/09/29 14:58:45;;;;;;;7.68;2.05;;;;;;;;;;5005631;28;20184;-70
2021/09/29 15:01:10;;;;;;;2.30;0.70;;;;;;;;;;5008778;28;20278;-72
2021/09/29 15:03:36;;;;;;;7.38;0.90;;;;;;;;;;5007708;28;20179;-71
2021/09/29 15:06:03;;;;;;;2.83;1.13;;;;;;;;;;5006723;28;20208;-71
2021/09/29 15:08:28;;;;;;;2.70;0.80;;;;;;;;;;5010594;28;20262;-72
2021/09/29 15:10:53;;;;;;;3.08;0.65;;;;;;;;;;5006745;28;20289;-75
2021/09/29 15:13:24;;;;;;;1.17;1.05;;;;;;;;;;5009778;28;20171;-76
2021/09/29 15:16:03;;;;;;;3.17;0.75;;;;;;;;;;4994455;28;20191;-74
2021/09/29 15:18:37;;;;;;;1.48;0.65;;;;;;;;;;4998365;28;20187;-73
2021/09/29 15:26:34;;;;;;;2.60;0.90;;;;;;;;;;4994213;28;20345;-74
2021/09/29 15:31:58;;;;;;;1.02;0.68;;;;;;;;;;4990306;28;20704;-73
2021/09/29 15:48:10;;;;;;;1.52;0.85;;;;;;;;;;4999790;28;20210;-76
2021/09/29 15:50:56;;;;;;;4.65;0.93;;;;;;;;;;5001645;28;20698;-74
2021/09/29 15:58:42;;;;;;;3.47;0.75;;;;;;;;;;5001951;28;20186;-78
2021/09/29 16:01:41;;;;;;;4.03;1.63;;;;;;;;;;4999814;28;20206;-76
2021/09/29 16:16:48;;;;;;;4.40;1.13;;;;;;;;;;5009673;28;20249;-78
2021/09/29 16:30:20;;;;;;;6.13;1.27;;;;;;;;;;4997586;28;20253;-76
2021/09/29 16:37:46;;;;;;;3.03;0.67;;;;;;;;;;5012414;28;20714;-75
2021/09/29 16:40:11;;;;;;;4.63;0.87;;;;;;;;;;5008059;28;20648;-75
2021/09/29 16:42:36;;;;;;;2.00;1.03;;;;;;;;;;5009400;28;20210;-75
2021/09/29 16:45:05;;;;;;;1.70;0.77;;;;;;;;;;5007696;28;20667;-75
2021/09/29 16:47:30;;;;;;;2.30;0.67;;;;;;;;;;5009150;28;20183;-75
2021/09/29 16:49:56;;;;;;;2.03;0.77;;;;;;;;;;5013246;28;20233;-74
2021/09/29 16:54:46;;;;;;;2.57;0.60;;;;;;;;;;5011655;28;20182;-75
2021/09/29 16:57:15;;;;;;;2.07;0.80;;;;;;;;;;5010503;28;20397;-74
2021/09/29 16:59:45;;;;;;;3.43;1.07;;;;;;;;;;5011142;28;20206;-74
2021/09/29 17:02:13;;;;;;;3.63;0.90;;;;;;;;;;5010234;28;20191;-74
2021/09/29 17:04:38;;;;;;;5.10;1.07;;;;;;;;;;5010362;28;20271;-74
2021/09/29 17:07:03;;;;;;;3.17;1.00;;;;;;;;;;5002971;28;20260;-74
2021/09/29 17:09:29;;;;;;;3.70;1.10;;;;;;;;;;5010687;28;20210;-74
2021/09/29 17:11:54;;;;;;;4.60;1.10;;;;;;;;;;5010441;28;20179;-74
2021/09/29 17:14:19;;;;;;;2.90;1.17;;;;;;;;;;5008745;28;20171;-74
2021/09/29 17:16:44;;;;;;;3.27;0.97;;;;;;;;;;5011727;28;20277;-73
2021/09/29 17:19:09;;;;;;;7.47;0.97;;;;;;;;;;5008945;28;20711;-72
2021/09/29 17:21:37;;;;;;;3.67;0.97;;;;;;;;;;4997716;28;20211;-75
2021/09/29 17:24:02;;;;;;;3.27;1.13;;;;;;;;;;5005128;28;20190;-75
2021/09/29 17:26:27;;;;;;;4.07;1.30;;;;;;;;;;5002860;28;20203;-79
2021/09/29 17:29:01;;;;;;;5.47;1.37;;;;;;;;;;4997598;28;20262;-78
2021/09/29 17:31:44;;;;;;;3.07;1.30;;;;;;;;;;4998573;28;20623;-77
2021/09/29 17:34:47;;;;;;;4.57;1.00;;;;;;;;;;4998872;28;20674;-77
2021/09/29 17:37:16;;;;;;;2.40;1.40;;;;;;;;;;4999220;28;20260;-79
2021/09/29 17:53:21;;;;;;;3.83;1.53;;;;;;;;;;4997044;28;20182;-77
2021/09/29 17:55:46;;;;;;;1.70;0.90;;;;;;;;;;4996909;28;20186;-76
2021/09/29 17:58:12;;;;;;;3.87;1.47;;;;;;;;;;4999592;28;20627;-76
2021/09/29 18:00:40;;;;;;;7.43;1.10;;;;;;;;;;5000325;28;20668;-75
2021/09/29 18:03:09;;;;;;;1.23;0.80;;;;;;;;;;4999017;28;20253;-77
2021/09/29 18:05:37;;;;;;;6.60;1.23;;;;;;;;;;5000461;28;20194;-76
2021/09/29 18:08:03;;;;;;;5.10;1.27;;;;;;;;;;4996621;28;20186;-78
2021/09/29 18:10:29;;;;;;;7.27;1.30;;;;;;;;;;4995456;28;20225;-77
2021/09/29 18:12:55;;;;;;;6.33;1.60;;;;;;;;;;4996775;28;20210;-77
2021/09/29 18:15:20;;;;;;;4.30;1.30;;;;;;;;;;4993623;28;21060;-76
2021/09/29 18:17:45;;;;;;;4.97;1.50;;;;;;;;;;4993069;28;20179;-77
2021/09/29 18:20:11;;;;;;;7.40;2.13;;;;;;;;;;4999493;28;20206;-75
2021/09/29 18:22:37;;;;;;;3.10;1.63;;;;;;;;;;4996822;28;20232;-76
2021/09/29 18:25:03;;;;;;;3.37;1.17;;;;;;;;;;4997766;28;20630;-75
2021/09/29 18:27:28;;;;;;;7.63;1.57;;;;;;;;;;5002358;28;20180;-77
2021/09/29 18:29:55;;;;;;;4.70;1.63;;;;;;;;;;4998267;28;20206;-76
2021/09/29 18:32:21;;;;;;;4.87;1.47;;;;;;;;;;4997994;28;20174;-77
2021/09/29 18:34:46;;;;;;;5.33;1.50;;;;;;;;;;5009766;28;20179;-75
2021/09/29 18:37:11;;;;;;;10.33;2.33;;;;;;;;;;5007019;28;20186;-76
2021/09/29 18:39:38;;;;;;;6.20;1.90;;;;;;;;;;5002380;28;20203;-75
2021/09/29 18:42:04;;;;;;;3.80;1.57;;;;;;;;;;5008684;28;20202;-75
2021/09/29 18:44:38;;;;;;;5.97;1.57;;;;;;;;;;5009844;28;20179;-75
2021/09/29 18:47:03;;;;;;;6.50;2.03;;;;;;;;;;5008698;28;20203;-74
2021/09/29 18:49:29;;;;;;;4.97;1.20;;;;;;;;;;5010457;28;20174;-75
2021/09/29 18:51:55;;;;;;;3.10;1.90;;;;;;;;;;5003585;28;20172;-75
2021/09/29 18:54:33;;;;;;;5.90;1.60;;;;;;;;;;5010562;28;20171;-79
2021/09/29 19:07:46;;;;;;;1.60;1.10;;;;;;;;;;5014759;28;20185;-77
2021/09/29 19:10:11;;;;;;;2.53;1.07;;;;;;;;;;5008869;28;20269;-79
2021/09/29 19:12:37;;;;;;;3.43;1.23;;;;;;;;;;5009852;28;20187;-77